sensor_id;sensor_type;location;lat;lon;timestamp;pressure;altitude;pressure_sealevel;temperature;humidity
37710;BME280;60223;34.854;-92.408;2024-01-16T00:20:47;101656.80;;;27.58;18.06
37710;BME280;60223;34.854;-92.408;2024-01-16T00:23:13;101662.85;;;26.87;18.71
37710;BME280;60223;34.854;-92.408;2024-01-16T00:25:39;101663.20;;;26.73;18.80
37710;BME280;60223;34.854;-92.408;2024-01-16T00:28:05;101659.14;;;26.76;18.97
37710;BME280;60223;34.854;-92.408;2024-01-16T00:30:29;101657.17;;;26.80;18.64
37710;BME280;60223;34.854;-92.408;2024-01-16T00:32:55;101656.18;;;26.26;18.62
37710;BME280;60223;34.854;-92.408;2024-01-16T00:35:21;101653.14;;;27.97;17.55
37710;BME280;60223;34.854;-92.408;2024-01-16T00:37:47;101653.99;;;26.96;17.60
37710;BME280;60223;34.854;-92.408;2024-01-16T00:40:12;101649.89;;;28.04;17.09
37710;BME280;60223;34.854;-92.408;2024-01-16T00:42:38;101640.67;;;27.93;16.70
37710;BME280;60223;34.854;-92.408;2024-01-16T00:45:04;101639.96;;;28.20;16.41
37710;BME280;60223;34.854;-92.408;2024-01-16T00:47:29;101641.18;;;28.29;16.25
37710;BME280;60223;34.854;-92.408;2024-01-16T00:49:55;101647.15;;;28.49;16.27
37710;BME280;60223;34.854;-92.408;2024-01-16T00:52:20;101657.97;;;27.70;17.21
37710;BME280;60223;34.854;-92.408;2024-01-16T00:54:46;101665.30;;;26.96;17.28
37710;BME280;60223;34.854;-92.408;2024-01-16T00:57:12;101669.26;;;27.04;17.20
37710;BME280;60223;34.854;-92.408;2024-01-16T00:59:37;101673.26;;;26.82;17.25
37710;BME280;60223;34.854;-92.408;2024-01-16T01:02:02;101674.51;;;27.18;16.64
37710;BME280;60223;34.854;-92.408;2024-01-16T01:04:29;101674.25;;;27.64;16.32
37710;BME280;60223;34.854;-92.408;2024-01-16T01:06:55;101668.70;;;28.06;15.86
37710;BME280;60223;34.854;-92.408;2024-01-16T01:09:21;101656.41;;;27.93;15.55
37710;BME280;60223;34.854;-92.408;2024-01-16T01:11:45;101664.24;;;28.32;15.40
37710;BME280;60223;34.854;-92.408;2024-01-16T01:14:10;101677.34;;;28.26;15.29
37710;BME280;60223;34.854;-92.408;2024-01-16T01:16:36;101689.27;;;28.55;15.33
37710;BME280;60223;34.854;-92.408;2024-01-16T01:19:01;101694.23;;;27.82;16.50
37710;BME280;60223;34.854;-92.408;2024-01-16T01:21:28;101703.14;;;27.20;16.98
37710;BME280;60223;34.854;-92.408;2024-01-16T01:23:51;101709.61;;;27.01;17.41
37710;BME280;60223;34.854;-92.408;2024-01-16T01:26:19;101705.86;;;26.54;17.58
37710;BME280;60223;34.854;-92.408;2024-01-16T01:28:45;101710.13;;;27.22;17.38
37710;BME280;60223;34.854;-92.408;2024-01-16T01:31:11;101705.11;;;27.35;16.59
37710;BME280;60223;34.854;-92.408;2024-01-16T01:33:36;101703.09;;;27.80;16.19
37710;BME280;60223;34.854;-92.408;2024-01-16T01:36:01;101699.65;;;27.92;15.76
37710;BME280;60223;34.854;-92.408;2024-01-16T01:38:26;101695.98;;;28.21;15.36
37710;BME280;60223;34.854;-92.408;2024-01-16T01:40:52;101687.12;;;28.04;15.43
37710;BME280;60223;34.854;-92.408;2024-01-16T01:43:22;101693.75;;;28.04;15.34
37710;BME280;60223;34.854;-92.408;2024-01-16T01:45:43;101697.40;;;28.31;16.03
37710;BME280;60223;34.854;-92.408;2024-01-16T01:48:10;101705.56;;;28.06;16.76
37710;BME280;60223;34.854;-92.408;2024-01-16T01:50:35;101715.62;;;27.72;17.13
37710;BME280;60223;34.854;-92.408;2024-01-16T01:53:00;101731.33;;;27.71;17.05
37710;BME280;60223;34.854;-92.408;2024-01-16T01:55:26;101734.84;;;27.58;16.89
37710;BME280;60223;34.854;-92.408;2024-01-16T01:57:52;101742.38;;;28.11;16.18
37710;BME280;60223;34.854;-92.408;2024-01-16T02:00:16;101756.10;;;28.15;15.53
37710;BME280;60223;34.854;-92.408;2024-01-16T02:02:45;101761.92;;;28.32;15.26
37710;BME280;60223;34.854;-92.408;2024-01-16T02:05:09;101766.31;;;27.95;15.08
37710;BME280;60223;34.854;-92.408;2024-01-16T02:07:34;101771.52;;;28.10;14.92
37710;BME280;60223;34.854;-92.408;2024-01-16T02:12:26;101760.11;;;28.18;15.98
37710;BME280;60223;34.854;-92.408;2024-01-16T02:14:51;101751.79;;;27.64;15.99
37710;BME280;60223;34.854;-92.408;2024-01-16T02:17:16;101752.59;;;27.83;15.91
37710;BME280;60223;34.854;-92.408;2024-01-16T02:19:42;101751.63;;;27.50;16.32
37710;BME280;60223;34.854;-92.408;2024-01-16T02:29:22;101740.09;;;27.98;14.71
37710;BME280;60223;34.854;-92.408;2024-01-16T02:31:50;101741.71;;;28.51;14.63
37710;BME280;60223;34.854;-92.408;2024-01-16T02:34:16;101733.43;;;28.31;14.53
37710;BME280;60223;34.854;-92.408;2024-01-16T02:36:41;101725.01;;;28.67;14.39
37710;BME280;60223;34.854;-92.408;2024-01-16T02:39:07;101717.01;;;29.06;14.95
37710;BME280;60223;34.854;-92.408;2024-01-16T02:41:32;101712.77;;;28.31;15.93
37710;BME280;60223;34.854;-92.408;2024-01-16T02:43:58;101712.09;;;27.74;15.75
37710;BME280;60223;34.854;-92.408;2024-01-16T02:46:24;101711.71;;;27.55;15.93
37710;BME280;60223;34.854;-92.408;2024-01-16T02:48:49;101707.34;;;27.36;15.71
37710;BME280;60223;34.854;-92.408;2024-01-16T02:51:13;101709.96;;;27.48;15.55
37710;BME280;60223;34.854;-92.408;2024-01-16T02:53:41;101706.75;;;27.46;15.31
37710;BME280;60223;34.854;-92.408;2024-01-16T02:56:07;101712.58;;;27.95;15.07
37710;BME280;60223;34.854;-92.408;2024-01-16T02:58:32;101721.76;;;28.06;14.79
37710;BME280;60223;34.854;-92.408;2024-01-16T03:00:56;101726.42;;;28.30;14.66
37710;BME280;60223;34.854;-92.408;2024-01-16T03:03:23;101727.70;;;28.70;14.33
37710;BME280;60223;34.854;-92.408;2024-01-16T03:05:49;101726.90;;;28.66;14.32
37710;BME280;60223;34.854;-92.408;2024-01-16T03:08:14;101722.70;;;28.22;14.27
37710;BME280;60223;34.854;-92.408;2024-01-16T03:10:39;101733.79;;;28.64;14.25
37710;BME280;60223;34.854;-92.408;2024-01-16T03:13:05;101740.82;;;28.68;14.67
37710;BME280;60223;34.854;-92.408;2024-01-16T03:15:34;101744.85;;;28.27;15.78
37710;BME280;60223;34.854;-92.408;2024-01-16T03:17:57;101743.85;;;27.91;14.94
37710;BME280;60223;34.854;-92.408;2024-01-16T03:20:23;101744.20;;;27.63;15.41
37710;BME280;60223;34.854;-92.408;2024-01-16T03:22:47;101744.11;;;27.44;15.38
37710;BME280;60223;34.854;-92.408;2024-01-16T03:25:13;101750.10;;;27.69;15.31
37710;BME280;60223;34.854;-92.408;2024-01-16T03:27:39;101759.84;;;27.43;15.26
37710;BME280;60223;34.854;-92.408;2024-01-16T03:30:05;101764.59;;;26.93;14.91
37710;BME280;60223;34.854;-92.408;2024-01-16T03:32:28;101767.56;;;25.73;15.51
37710;BME280;60223;34.854;-92.408;2024-01-16T03:34:56;101761.88;;;27.01;15.02
37710;BME280;60223;34.854;-92.408;2024-01-16T03:37:22;101760.61;;;26.33;15.35
37710;BME280;60223;34.854;-92.408;2024-01-16T03:39:48;101760.24;;;26.27;15.43
37710;BME280;60223;34.854;-92.408;2024-01-16T03:42:12;101760.73;;;27.89;14.51
37710;BME280;60223;34.854;-92.408;2024-01-16T03:44:42;101752.00;;;27.76;14.49
37710;BME280;60223;34.854;-92.408;2024-01-16T03:47:04;101746.85;;;27.99;14.22
37710;BME280;60223;34.854;-92.408;2024-01-16T03:49:30;101742.95;;;28.00;14.30
37710;BME280;60223;34.854;-92.408;2024-01-16T03:51:54;101752.05;;;27.73;14.37
37710;BME280;60223;34.854;-92.408;2024-01-16T03:54:21;101756.06;;;28.10;14.18
37710;BME280;60223;34.854;-92.408;2024-01-16T03:56:46;101769.77;;;27.53;14.34
37710;BME280;60223;34.854;-92.408;2024-01-16T03:59:12;101770.77;;;27.93;14.24
37710;BME280;60223;34.854;-92.408;2024-01-16T04:01:37;101773.69;;;27.85;14.31
37710;BME280;60223;34.854;-92.408;2024-01-16T04:04:05;101774.69;;;28.24;14.16
37710;BME280;60223;34.854;-92.408;2024-01-16T04:06:29;101775.47;;;28.15;14.08
37710;BME280;60223;34.854;-92.408;2024-01-16T04:08:55;101780.90;;;28.40;13.92
37710;BME280;60223;34.854;-92.408;2024-01-16T04:11:20;101794.21;;;28.48;13.83
37710;BME280;60223;34.854;-92.408;2024-01-16T04:13:45;101800.81;;;28.55;13.77
37710;BME280;60223;34.854;-92.408;2024-01-16T04:16:12;101788.05;;;28.55;13.64
37710;BME280;60223;34.854;-92.408;2024-01-16T04:18:38;101799.72;;;28.78;13.63
37710;BME280;60223;34.854;-92.408;2024-01-16T04:21:03;101811.67;;;28.80;13.65
37710;BME280;60223;34.854;-92.408;2024-01-16T04:23:27;101822.61;;;28.70;13.58
37710;BME280;60223;34.854;-92.408;2024-01-16T04:25:54;101833.74;;;28.93;13.51
37710;BME280;60223;34.854;-92.408;2024-01-16T04:28:20;101838.37;;;29.04;13.62
37710;BME280;60223;34.854;-92.408;2024-01-16T04:30:45;101838.27;;;28.47;13.97
37710;BME280;60223;34.854;-92.408;2024-01-16T04:33:09;101838.46;;;28.92;13.71
37710;BME280;60223;34.854;-92.408;2024-01-16T04:35:34;101829.20;;;28.23;13.92
37710;BME280;60223;34.854;-92.408;2024-01-16T04:38:02;101820.33;;;28.17;13.92
37710;BME280;60223;34.854;-92.408;2024-01-16T04:40:28;101816.05;;;28.14;13.81
37710;BME280;60223;34.854;-92.408;2024-01-16T04:42:53;101810.52;;;28.64;13.78
37710;BME280;60223;34.854;-92.408;2024-01-16T04:45:19;101813.70;;;28.34;13.81
37710;BME280;60223;34.854;-92.408;2024-01-16T04:47:44;101817.18;;;28.30;13.80
37710;BME280;60223;34.854;-92.408;2024-01-16T04:50:11;101820.57;;;28.39;13.92
37710;BME280;60223;34.854;-92.408;2024-01-16T04:52:36;101811.37;;;28.24;13.87
37710;BME280;60223;34.854;-92.408;2024-01-16T04:54:59;101813.84;;;28.55;13.66
37710;BME280;60223;34.854;-92.408;2024-01-16T04:57:27;101800.55;;;28.40;13.55
37710;BME280;60223;34.854;-92.408;2024-01-16T04:59:53;101802.50;;;28.82;13.52
37710;BME280;60223;34.854;-92.408;2024-01-16T05:02:17;101811.90;;;28.76;13.51
37710;BME280;60223;34.854;-92.408;2024-01-16T05:04:45;101817.24;;;28.91;13.34
37710;BME280;60223;34.854;-92.408;2024-01-16T05:07:10;101817.30;;;28.87;13.33
37710;BME280;60223;34.854;-92.408;2024-01-16T05:09:34;101816.75;;;28.96;13.32
37710;BME280;60223;34.854;-92.408;2024-01-16T05:12:00;101809.23;;;29.14;13.45
37710;BME280;60223;34.854;-92.408;2024-01-16T05:14:27;101814.67;;;28.99;13.54
37710;BME280;60223;34.854;-92.408;2024-01-16T05:16:52;101814.97;;;28.59;13.60
37710;BME280;60223;34.854;-92.408;2024-01-16T05:19:18;101804.65;;;28.59;13.59
37710;BME280;60223;34.854;-92.408;2024-01-16T05:21:44;101802.23;;;28.48;13.62
37710;BME280;60223;34.854;-92.408;2024-01-16T05:24:09;101809.36;;;28.47;13.61
37710;BME280;60223;34.854;-92.408;2024-01-16T05:26:34;101804.69;;;28.51;13.57
37710;BME280;60223;34.854;-92.408;2024-01-16T05:29:00;101801.01;;;28.44;13.60
37710;BME280;60223;34.854;-92.408;2024-01-16T05:31:26;101795.22;;;28.15;13.89
37710;BME280;60223;34.854;-92.408;2024-01-16T05:33:50;101800.60;;;28.52;13.60
37710;BME280;60223;34.854;-92.408;2024-01-16T05:36:15;101805.61;;;28.75;13.43
37710;BME280;60223;34.854;-92.408;2024-01-16T05:38:43;101804.61;;;28.89;13.28
37710;BME280;60223;34.854;-92.408;2024-01-16T05:41:09;101804.34;;;29.09;13.14
37710;BME280;60223;34.854;-92.408;2024-01-16T05:43:34;101818.35;;;29.19;13.05
37710;BME280;60223;34.854;-92.408;2024-01-16T05:45:59;101823.52;;;28.78;13.11
37710;BME280;60223;34.854;-92.408;2024-01-16T05:48:24;101816.09;;;28.93;13.15
37710;BME280;60223;34.854;-92.408;2024-01-16T05:50:51;101808.27;;;28.93;13.07
37710;BME280;60223;34.854;-92.408;2024-01-16T05:53:14;101814.46;;;29.02;13.13
37710;BME280;60223;34.854;-92.408;2024-01-16T05:55:40;101820.11;;;29.34;13.24
37710;BME280;60223;34.854;-92.408;2024-01-16T05:58:08;101818.28;;;28.74;13.38
37710;BME280;60223;34.854;-92.408;2024-01-16T06:00:33;101811.83;;;28.61;13.53
37710;BME280;60223;34.854;-92.408;2024-01-16T06:02:59;101815.61;;;28.85;13.50
37710;BME280;60223;34.854;-92.408;2024-01-16T06:05:25;101821.62;;;28.70;13.43
37710;BME280;60223;34.854;-92.408;2024-01-16T06:07:50;101812.49;;;28.69;13.42
37710;BME280;60223;34.854;-92.408;2024-01-16T06:10:16;101799.76;;;28.62;13.41
37710;BME280;60223;34.854;-92.408;2024-01-16T06:12:41;101801.28;;;28.35;13.41
37710;BME280;60223;34.854;-92.408;2024-01-16T06:15:08;101800.37;;;28.38;13.52
37710;BME280;60223;34.854;-92.408;2024-01-16T06:17:33;101805.17;;;28.26;13.50
37710;BME280;60223;34.854;-92.408;2024-01-16T06:19:59;101805.79;;;28.42;13.54
37710;BME280;60223;34.854;-92.408;2024-01-16T06:22:23;101802.40;;;28.79;13.22
37710;BME280;60223;34.854;-92.408;2024-01-16T06:24:49;101804.69;;;29.01;13.10
37710;BME280;60223;34.854;-92.408;2024-01-16T06:27:15;101816.83;;;28.94;13.06
37710;BME280;60223;34.854;-92.408;2024-01-16T06:29:39;101790.89;;;28.93;12.93
37710;BME280;60223;34.854;-92.408;2024-01-16T06:32:06;101788.63;;;29.16;12.91
37710;BME280;60223;34.854;-92.408;2024-01-16T06:34:32;101795.47;;;28.93;12.90
37710;BME280;60223;34.854;-92.408;2024-01-16T06:36:57;101794.52;;;29.19;12.90
37710;BME280;60223;34.854;-92.408;2024-01-16T06:39:21;101798.01;;;29.40;12.92
37710;BME280;60223;34.854;-92.408;2024-01-16T06:41:49;101799.01;;;28.94;13.26
37710;BME280;60223;34.854;-92.408;2024-01-16T06:44:14;101793.51;;;28.66;13.29
37710;BME280;60223;34.854;-92.408;2024-01-16T06:46:40;101786.23;;;28.86;13.28
37710;BME280;60223;34.854;-92.408;2024-01-16T06:49:03;101792.15;;;28.71;13.31
37710;BME280;60223;34.854;-92.408;2024-01-16T06:51:31;101793.15;;;28.67;13.31
37710;BME280;60223;34.854;-92.408;2024-01-16T06:53:57;101800.08;;;28.81;13.20
37710;BME280;60223;34.854;-92.408;2024-01-16T06:56:23;101799.23;;;29.01;13.20
37710;BME280;60223;34.854;-92.408;2024-01-16T06:58:48;101784.80;;;28.39;13.36
37710;BME280;60223;34.854;-92.408;2024-01-16T07:01:14;101785.69;;;28.36;13.27
37710;BME280;60223;34.854;-92.408;2024-01-16T07:03:39;101785.22;;;28.80;13.34
37710;BME280;60223;34.854;-92.408;2024-01-16T07:06:05;101769.14;;;28.91;13.10
37710;BME280;60223;34.854;-92.408;2024-01-16T07:08:30;101775.44;;;29.04;13.00
37710;BME280;60223;34.854;-92.408;2024-01-16T07:10:56;101782.55;;;29.28;12.81
37710;BME280;60223;34.854;-92.408;2024-01-16T07:13:22;101786.81;;;29.27;12.76
37710;BME280;60223;34.854;-92.408;2024-01-16T07:15:47;101795.93;;;29.17;12.79
37710;BME280;60223;34.854;-92.408;2024-01-16T07:18:13;101804.07;;;29.18;12.78
37710;BME280;60223;34.854;-92.408;2024-01-16T07:20:39;101812.70;;;29.53;12.74
37710;BME280;60223;34.854;-92.408;2024-01-16T07:23:04;101819.66;;;29.08;12.76
37710;BME280;60223;34.854;-92.408;2024-01-16T07:25:29;101826.66;;;29.37;13.03
37710;BME280;60223;34.854;-92.408;2024-01-16T07:27:55;101845.89;;;28.60;13.17
37710;BME280;60223;34.854;-92.408;2024-01-16T07:30:22;101843.31;;;28.83;13.17
37710;BME280;60223;34.854;-92.408;2024-01-16T07:32:47;101843.01;;;29.06;13.15
37710;BME280;60223;34.854;-92.408;2024-01-16T07:35:12;101847.77;;;28.81;13.12
37710;BME280;60223;34.854;-92.408;2024-01-16T07:37:37;101844.10;;;28.78;13.10
37710;BME280;60223;34.854;-92.408;2024-01-16T07:40:03;101841.03;;;28.73;13.12
37710;BME280;60223;34.854;-92.408;2024-01-16T07:42:29;101840.97;;;28.47;13.21
37710;BME280;60223;34.854;-92.408;2024-01-16T07:44:56;101831.53;;;28.70;13.14
37710;BME280;60223;34.854;-92.408;2024-01-16T07:47:21;101832.37;;;28.65;13.16
37710;BME280;60223;34.854;-92.408;2024-01-16T07:49:47;101853.04;;;28.80;13.07
37710;BME280;60223;34.854;-92.408;2024-01-16T07:52:10;101852.35;;;28.86;12.85
37710;BME280;60223;34.854;-92.408;2024-01-16T07:54:37;101852.15;;;28.91;12.79
37710;BME280;60223;34.854;-92.408;2024-01-16T07:57:03;101859.03;;;29.21;12.70
37710;BME280;60223;34.854;-92.408;2024-01-16T07:59:29;101875.43;;;29.28;12.65
37710;BME280;60223;34.854;-92.408;2024-01-16T08:01:54;101888.05;;;29.17;12.66
37710;BME280;60223;34.854;-92.408;2024-01-16T08:04:17;101897.86;;;29.28;12.62
37710;BME280;60223;34.854;-92.408;2024-01-16T08:06:46;101894.32;;;28.52;12.63
37710;BME280;60223;34.854;-92.408;2024-01-16T08:09:11;101889.97;;;29.47;12.64
37710;BME280;60223;34.854;-92.408;2024-01-16T08:11:37;101883.28;;;29.19;12.96
37710;BME280;60223;34.854;-92.408;2024-01-16T08:14:01;101878.71;;;29.04;12.94
37710;BME280;60223;34.854;-92.408;2024-01-16T08:16:27;101895.38;;;28.81;13.03
37710;BME280;60223;34.854;-92.408;2024-01-16T08:18:53;101905.28;;;28.89;12.97
37710;BME280;60223;34.854;-92.408;2024-01-16T08:21:17;101906.39;;;28.72;13.00
37710;BME280;60223;34.854;-92.408;2024-01-16T08:23:45;101912.62;;;29.00;12.96
37710;BME280;60223;34.854;-92.408;2024-01-16T08:26:10;101921.93;;;28.22;12.98
37710;BME280;60223;34.854;-92.408;2024-01-16T08:28:36;101916.14;;;28.20;13.15
37710;BME280;60223;34.854;-92.408;2024-01-16T08:31:00;101911.03;;;28.58;13.03
37710;BME280;60223;34.854;-92.408;2024-01-16T08:33:27;101884.96;;;28.78;12.90
37710;BME280;60223;34.854;-92.408;2024-01-16T08:35:52;101869.57;;;28.94;12.81
37710;BME280;60223;34.854;-92.408;2024-01-16T08:45:32;101830.87;;;29.20;12.52
37710;BME280;60223;34.854;-92.408;2024-01-16T08:48:00;101835.04;;;29.23;12.50
37710;BME280;60223;34.854;-92.408;2024-01-16T08:50:28;101838.42;;;29.04;12.51
37710;BME280;60223;34.854;-92.408;2024-01-16T08:52:52;101840.89;;;29.13;12.49
37710;BME280;60223;34.854;-92.408;2024-01-16T08:55:17;101839.60;;;29.24;12.77
37710;BME280;60223;34.854;-92.408;2024-01-16T08:57:42;101854.92;;;28.99;12.90
37710;BME280;60223;34.854;-92.408;2024-01-16T09:00:09;101873.17;;;28.88;12.90
37710;BME280;60223;34.854;-92.408;2024-01-16T09:02:34;101881.94;;;28.91;12.86
37710;BME280;60223;34.854;-92.408;2024-01-16T09:04:59;101879.24;;;29.01;12.80
37710;BME280;60223;34.854;-92.408;2024-01-16T09:07:26;101873.55;;;28.96;12.79
37710;BME280;60223;34.854;-92.408;2024-01-16T09:09:51;101867.90;;;28.81;12.88
37710;BME280;60223;34.854;-92.408;2024-01-16T09:12:17;101883.02;;;28.36;12.95
37710;BME280;60223;34.854;-92.408;2024-01-16T09:14:42;101885.74;;;28.33;13.05
37710;BME280;60223;34.854;-92.408;2024-01-16T09:17:07;101892.39;;;28.37;12.99
37710;BME280;60223;34.854;-92.408;2024-01-16T09:19:33;101890.33;;;28.40;13.02
37710;BME280;60223;34.854;-92.408;2024-01-16T09:21:59;101891.99;;;28.95;12.73
37710;BME280;60223;34.854;-92.408;2024-01-16T09:24:25;101894.05;;;29.36;12.59
37710;BME280;60223;34.854;-92.408;2024-01-16T09:26:47;101900.47;;;29.30;12.44
37710;BME280;60223;34.854;-92.408;2024-01-16T09:29:15;101893.66;;;29.25;12.40
37710;BME280;60223;34.854;-92.408;2024-01-16T09:31:41;101891.36;;;29.44;12.30
37710;BME280;60223;34.854;-92.408;2024-01-16T09:34:07;101893.78;;;28.75;12.40
37710;BME280;60223;34.854;-92.408;2024-01-16T09:36:31;101894.53;;;29.51;12.28
37710;BME280;60223;34.854;-92.408;2024-01-16T09:38:58;101900.94;;;29.58;12.25
37710;BME280;60223;34.854;-92.408;2024-01-16T09:41:24;101905.55;;;30.00;12.39
37710;BME280;60223;34.854;-92.408;2024-01-16T09:43:48;101901.04;;;28.93;12.68
37710;BME280;60223;34.854;-92.408;2024-01-16T09:46:16;101889.93;;;29.11;12.59
37710;BME280;60223;34.854;-92.408;2024-01-16T09:48:41;101890.95;;;28.79;12.73
37710;BME280;60223;34.854;-92.408;2024-01-16T09:51:05;101896.36;;;28.98;12.70
37710;BME280;60223;34.854;-92.408;2024-01-16T09:53:32;101901.63;;;28.94;12.72
37710;BME280;60223;34.854;-92.408;2024-01-16T09:55:58;101900.20;;;28.78;12.76
37710;BME280;60223;34.854;-92.408;2024-01-16T09:58:24;101888.97;;;28.34;12.83
37710;BME280;60223;34.854;-92.408;2024-01-16T10:00:48;101896.48;;;28.44;12.88
37710;BME280;60223;34.854;-92.408;2024-01-16T10:03:14;101895.29;;;27.79;12.95
37710;BME280;60223;34.854;-92.408;2024-01-16T10:05:40;101894.80;;;28.19;13.02
37710;BME280;60223;34.854;-92.408;2024-01-16T10:08:06;101903.43;;;28.84;12.72
37710;BME280;60223;34.854;-92.408;2024-01-16T10:10:31;101902.22;;;29.09;12.51
37710;BME280;60223;34.854;-92.408;2024-01-16T10:12:56;101895.67;;;28.62;12.42
37710;BME280;60223;34.854;-92.408;2024-01-16T10:15:23;101899.82;;;29.28;12.31
37710;BME280;60223;34.854;-92.408;2024-01-16T10:17:48;101903.80;;;29.41;12.22
37710;BME280;60223;34.854;-92.408;2024-01-16T10:20:14;101908.01;;;28.98;12.27
37710;BME280;60223;34.854;-92.408;2024-01-16T10:22:39;101910.13;;;29.32;12.16
37710;BME280;60223;34.854;-92.408;2024-01-16T10:25:09;101913.37;;;29.18;12.21
37710;BME280;60223;34.854;-92.408;2024-01-16T10:27:30;101915.74;;;29.53;12.19
37710;BME280;60223;34.854;-92.408;2024-01-16T10:29:58;101922.72;;;29.50;12.34
37710;BME280;60223;34.854;-92.408;2024-01-16T10:32:27;101923.69;;;29.25;12.59
37710;BME280;60223;34.854;-92.408;2024-01-16T10:34:47;101922.94;;;29.15;12.57
37710;BME280;60223;34.854;-92.408;2024-01-16T10:37:13;101933.86;;;28.96;12.67
37710;BME280;60223;34.854;-92.408;2024-01-16T10:39:39;101931.13;;;29.05;12.59
37710;BME280;60223;34.854;-92.408;2024-01-16T10:42:04;101924.59;;;28.78;12.57
37710;BME280;60223;34.854;-92.408;2024-01-16T10:44:30;101934.11;;;28.83;12.63
37710;BME280;60223;34.854;-92.408;2024-01-16T10:49:22;101929.42;;;28.38;12.80
37710;BME280;60223;34.854;-92.408;2024-01-16T10:51:47;101929.61;;;28.67;12.72
37710;BME280;60223;34.854;-92.408;2024-01-16T10:54:16;101922.42;;;28.68;12.71
37710;BME280;60223;34.854;-92.408;2024-01-16T10:56:39;101927.28;;;28.98;12.48
37710;BME280;60223;34.854;-92.408;2024-01-16T10:59:09;101921.74;;;29.30;12.30
37710;BME280;60223;34.854;-92.408;2024-01-16T11:01:28;101915.40;;;28.93;12.18
37710;BME280;60223;34.854;-92.408;2024-01-16T11:03:55;101923.75;;;29.31;12.18
37710;BME280;60223;34.854;-92.408;2024-01-16T11:06:19;101928.22;;;29.50;12.10
37710;BME280;60223;34.854;-92.408;2024-01-16T11:08:46;101934.99;;;29.38;12.14
37710;BME280;60223;34.854;-92.408;2024-01-16T11:11:12;101923.63;;;29.31;12.07
37710;BME280;60223;34.854;-92.408;2024-01-16T11:13:38;101931.57;;;29.70;12.16
37710;BME280;60223;34.854;-92.408;2024-01-16T11:16:05;101935.47;;;29.40;12.48
37710;BME280;60223;34.854;-92.408;2024-01-16T11:18:29;101932.63;;;28.82;12.49
37710;BME280;60223;34.854;-92.408;2024-01-16T11:20:55;101929.88;;;28.74;12.51
37710;BME280;60223;34.854;-92.408;2024-01-16T11:23:21;101935.84;;;28.79;12.48
37710;BME280;60223;34.854;-92.408;2024-01-16T11:25:45;101935.49;;;28.80;12.43
37710;BME280;60223;34.854;-92.408;2024-01-16T11:28:12;101939.92;;;28.56;12.52
37710;BME280;60223;34.854;-92.408;2024-01-16T11:30:36;101929.71;;;28.31;12.61
37710;BME280;60223;34.854;-92.408;2024-01-16T11:33:03;101934.44;;;28.28;12.76
37710;BME280;60223;34.854;-92.408;2024-01-16T11:35:32;101943.18;;;28.67;12.64
37710;BME280;60223;34.854;-92.408;2024-01-16T11:37:52;101932.15;;;28.55;12.52
37710;BME280;60223;34.854;-92.408;2024-01-16T11:40:25;101927.11;;;28.91;12.30
37710;BME280;60223;34.854;-92.408;2024-01-16T11:42:44;101916.55;;;29.35;12.15
37710;BME280;60223;34.854;-92.408;2024-01-16T11:45:14;101917.23;;;29.28;12.08
37710;BME280;60223;34.854;-92.408;2024-01-16T11:47:34;101919.28;;;29.28;12.06
37710;BME280;60223;34.854;-92.408;2024-01-16T11:50:10;101921.52;;;29.07;12.04
37710;BME280;60223;34.854;-92.408;2024-01-16T11:54:53;101923.21;;;29.51;11.97
37710;BME280;60223;34.854;-92.408;2024-01-16T11:57:30;101923.43;;;29.68;11.90
37710;BME280;60223;34.854;-92.408;2024-01-16T12:02:17;101912.57;;;29.25;12.33
37710;BME280;60223;34.854;-92.408;2024-01-16T12:04:35;101927.07;;;28.85;12.30
37710;BME280;60223;34.854;-92.408;2024-01-16T12:07:01;101934.80;;;28.97;12.46
37710;BME280;60223;34.854;-92.408;2024-01-16T12:09:25;101935.42;;;28.63;12.49
37710;BME280;60223;34.854;-92.408;2024-01-16T12:11:57;101950.51;;;29.04;12.38
37710;BME280;60223;34.854;-92.408;2024-01-16T12:14:18;101956.63;;;28.69;12.41
37710;BME280;60223;34.854;-92.408;2024-01-16T12:16:43;101957.76;;;28.74;12.48
37710;BME280;60223;34.854;-92.408;2024-01-16T12:19:09;101963.65;;;27.75;12.68
37710;BME280;60223;34.854;-92.408;2024-01-16T12:21:38;101960.05;;;28.17;12.73
37710;BME280;60223;34.854;-92.408;2024-01-16T12:24:00;101965.23;;;28.53;12.51
37710;BME280;60223;34.854;-92.408;2024-01-16T12:26:25;101975.04;;;28.82;12.47
37710;BME280;60223;34.854;-92.408;2024-01-16T12:28:54;101974.11;;;28.99;12.36
37710;BME280;60223;34.854;-92.408;2024-01-16T12:31:19;101977.90;;;29.54;12.16
37710;BME280;60223;34.854;-92.408;2024-01-16T12:33:41;101982.63;;;29.19;12.17
37710;BME280;60223;34.854;-92.408;2024-01-16T12:36:08;101993.13;;;29.18;12.23
37710;BME280;60223;34.854;-92.408;2024-01-16T12:38:34;101990.27;;;28.32;12.46
37710;BME280;60223;34.854;-92.408;2024-01-16T12:40:59;101995.80;;;28.58;12.53
37710;BME280;60223;34.854;-92.408;2024-01-16T12:43:24;101997.81;;;27.87;12.55
37710;BME280;60223;34.854;-92.408;2024-01-16T12:45:56;101999.81;;;28.26;12.55
37710;BME280;60223;34.854;-92.408;2024-01-16T12:48:21;102005.55;;;28.22;12.54
37710;BME280;60223;34.854;-92.408;2024-01-16T12:50:40;102001.23;;;27.96;12.67
37710;BME280;60223;34.854;-92.408;2024-01-16T12:53:07;102010.84;;;27.53;12.70
37710;BME280;60223;34.854;-92.408;2024-01-16T12:55:34;102019.21;;;28.22;12.60
37710;BME280;60223;34.854;-92.408;2024-01-16T13:00:26;102024.04;;;28.78;12.57
37710;BME280;60223;34.854;-92.408;2024-01-16T13:02:52;102015.66;;;28.67;12.71
37710;BME280;60223;34.854;-92.408;2024-01-16T13:05:14;102023.97;;;28.86;12.92
37710;BME280;60223;34.854;-92.408;2024-01-16T13:07:41;102007.18;;;28.54;13.03